Time,TemperatureF,DewpointF,PressureIn,WindDirection,WindDirectionDegrees,WindSpeedMPH,WindSpeedGustMPH,Humidity,HourlyPrecipIn,Conditions,Clouds,dailyrainin,SolarRadiationWatts/m^2,SoftwareType,DateUTC
2013-09-30 00:03:00,62.8,46.9,29.97,West,278,0.0,0.0,56,0.00,CLR,,0.00,0.0,WeatherDisplay:10.37,2013-09-30 07:03:00,
2013-09-30 00:08:00,62.7,46.8,29.97,West,278,0.0,0.0,56,0.00,CLR,,0.00,0.0,WeatherDisplay:10.37,2013-09-30 07:08:00,
2013-09-30 00:13:00,62.5,46.6,29.97,West,278,0.0,0.0,56,0.00,CLR,,0.00,0.0,WeatherDisplay:10.37,2013-09-30 07:13:00,
2013-09-30 00:18:00,62.3,46.4,29.97,West,278,0.0,0.0,56,0.00,CLR,,0.00,0.0,WeatherDisplay:10.37,2013-09-30 07:18:00,
2013-09-30 00:23:00,62.1,46.2,29.97,West,278,0.0,0.0,56,0.00,CLR,,0.00,0.0,WeatherDisplay:10.37,2013-09-30 07:23:00,
2013-09-30 00:28:00,61.9,46.0,29.97,West,278,0.0,0.0,56,0.00,CLR,,0.00,0.0,WeatherDisplay:10.37,2013-09-30 07:28:00,
2013-09-30 00:33:00,61.8,45.9,29.97,West,278,0.0,0.0,56,0.00,CLR,,0.00,0.0,WeatherDisplay:10.37,2013-09-30 07:33:00,
2013-09-30 00:38:00,61.5,46.1,29.97,West,278,0.0,0.0,57,0.00,CLR,,0.00,0.0,WeatherDisplay:10.37,2013-09-30 07:38:00,
2013-09-30 00:43:00,61.3,45.9,29.97,West,278,0.0,0.0,57,0.00,CLR,,0.00,0.0,WeatherDisplay:10.37,2013-09-30 07:43:00,
2013-09-30 00:48:00,61.2,46.3,29.97,West,278,0.0,0.0,58,0.00,CLR,,0.00,0.0,WeatherDisplay:10.37,2013-09-30 07:48:00,
2013-09-30 00:53:00,61.0,46.1,29.97,West,278,0.0,0.0,58,0.00,CLR,,0.00,0.0,WeatherDisplay:10.37,2013-09-30 07:53:00,
2013-09-30 00:58:00,60.9,46.0,29.97,West,278,0.0,0.0,58,0.00,CLR,,0.00,0.0,WeatherDisplay:10.37,2013-09-30 07:58:00,
2013-09-30 01:03:00,60.7,45.8,29.97,West,278,0.0,0.0,58,0.00,CLR,,0.00,0.0,WeatherDisplay:10.37,2013-09-30 08:03:00,
2013-09-30 01:08:00,60.6,46.2,29.97,West,278,1.0,0.0,59,0.00,CLR,,0.00,0.0,WeatherDisplay:10.37,2013-09-30 08:08:00,
2013-09-30 01:13:00,60.4,46.0,29.97,West,278,0.0,0.0,59,0.00,CLR,,0.00,0.0,WeatherDisplay:10.37,2013-09-30 08:13:00,
2013-09-30 01:18:00,60.3,45.9,29.97,West,278,0.0,0.0,59,0.00,CLR,,0.00,0.0,WeatherDisplay:10.37,2013-09-30 08:18:00,
2013-09-30 01:23:00,60.1,46.2,29.97,West,278,1.2,0.0,60,0.00,CLR,,0.00,0.0,WeatherDisplay:10.37,2013-09-30 08:23:00,
2013-09-30 01:28:00,60.1,46.2,29.96,West,278,0.0,0.0,60,0.00,CLR,,0.00,0.0,WeatherDisplay:10.37,2013-09-30 08:28:00,
2013-09-30 01:33:00,60.0,46.1,29.96,West,278,0.0,0.0,60,0.00,CLR,,0.00,0.0,WeatherDisplay:10.37,2013-09-30 08:33:00,
2013-09-30 01:38:00,60.0,46.1,29.96,West,278,0.0,0.0,60,0.00,CLR,,0.00,0.0,WeatherDisplay:10.37,2013-09-30 08:38:00,
2013-09-30 01:43:00,60.1,46.2,29.96,West,278,0.0,0.0,60,0.00,CLR,,0.00,0.0,WeatherDisplay:10.37,2013-09-30 08:43:00,
2013-09-30 01:48:00,60.1,46.2,29.96,West,278,0.0,0.0,60,0.00,CLR,,0.00,0.0,WeatherDisplay:10.37,2013-09-30 08:48:00,
2013-09-30 01:53:00,60.1,46.2,29.96,West,278,0.0,0.0,60,0.00,CLR,,0.00,0.0,WeatherDisplay:10.37,2013-09-30 08:53:00,
2013-09-30 01:58:00,60.1,46.2,29.96,West,278,0.0,0.0,60,0.00,CLR,,0.00,0.0,WeatherDisplay:10.37,2013-09-30 08:58:00,
2013-09-30 02:03:00,60.1,46.2,29.96,West,278,0.0,0.0,60,0.00,CLR,,0.00,0.0,WeatherDisplay:10.37,2013-09-30 09:03:00,
2013-09-30 02:08:00,60.0,46.1,29.96,West,278,0.0,0.0,60,0.00,CLR,,0.00,0.0,WeatherDisplay:10.37,2013-09-30 09:08:00,
2013-09-30 02:13:00,59.9,46.4,29.96,West,278,0.0,0.0,61,0.00,CLR,,0.00,0.0,WeatherDisplay:10.37,2013-09-30 09:13:00,
2013-09-30 02:18:00,59.8,46.7,29.96,West,278,0.0,0.0,62,0.00,CLR,,0.00,0.0,WeatherDisplay:10.37,2013-09-30 09:18:00,
2013-09-30 02:23:00,59.7,46.7,29.95,West,278,0.0,0.0,62,0.00,CLR,,0.00,0.0,WeatherDisplay:10.37,2013-09-30 09:23:00,
2013-09-30 02:28:00,59.6,46.6,29.95,West,278,0.0,0.0,62,0.00,CLR,,0.00,0.0,WeatherDisplay:10.37,2013-09-30 09:28:00,
2013-09-30 02:33:00,59.5,46.9,29.95,West,278,0.0,0.0,63,0.00,CLR,,0.00,0.0,WeatherDisplay:10.37,2013-09-30 09:33:00,
2013-09-30 02:38:00,59.4,46.8,29.95,West,278,0.0,0.0,63,0.00,CLR,,0.00,0.0,WeatherDisplay:10.37,2013-09-30 09:38:00,
2013-09-30 02:43:00,59.4,47.2,29.95,West,278,0.0,0.0,64,0.00,CLR,,0.00,0.0,WeatherDisplay:10.37,2013-09-30 09:43:00,
2013-09-30 02:48:00,59.3,47.1,29.95,West,278,0.0,0.0,64,0.00,CLR,,0.00,0.0,WeatherDisplay:10.37,2013-09-30 09:48:00,
2013-09-30 02:54:00,59.1,46.9,29.94,West,278,0.0,0.0,64,0.00,CLR,,0.00,0.0,WeatherDisplay:10.37,2013-09-30 09:54:00,
2013-09-30 02:59:00,59.0,46.8,29.94,West,278,0.0,0.0,64,0.00,CLR,,0.00,0.0,WeatherDisplay:10.37,2013-09-30 09:59:00,
2013-09-30 03:04:00,58.9,47.2,29.94,West,278,0.0,0.0,65,0.00,CLR,,0.00,0.0,WeatherDisplay:10.37,2013-09-30 10:04:00,
2013-09-30 03:09:00,58.9,47.2,29.94,West,278,0.0,0.0,65,0.00,CLR,,0.00,0.0,WeatherDisplay:10.37,2013-09-30 10:09:00,
2013-09-30 03:14:00,58.8,47.1,29.94,West,278,0.0,0.0,65,0.00,CLR,,0.00,0.0,WeatherDisplay:10.37,2013-09-30 10:14:00,
2013-09-30 03:19:00,58.7,47.4,29.94,West,278,0.0,0.0,66,0.00,CLR,,0.00,0.0,WeatherDisplay:10.37,2013-09-30 10:19:00,
2013-09-30 03:24:00,58.7,47.4,29.94,West,278,1.2,1.2,66,0.00,CLR,,0.00,0.0,WeatherDisplay:10.37,2013-09-30 10:24:00,
2013-09-30 03:29:00,58.7,47.4,29.94,West,278,1.2,0.0,66,0.00,CLR,,0.00,0.0,WeatherDisplay:10.37,2013-09-30 10:29:00,
2013-09-30 03:34:00,58.6,47.3,29.94,West,278,0.0,0.0,66,0.00,CLR,,0.00,0.0,WeatherDisplay:10.37,2013-09-30 10:34:00,
2013-09-30 03:39:00,58.5,47.2,29.94,West,278,0.0,0.0,66,0.00,CLR,,0.00,0.0,WeatherDisplay:10.37,2013-09-30 10:39:00,
2013-09-30 03:44:00,58.4,47.5,29.94,West,278,0.0,0.0,67,0.00,CLR,,0.00,0.0,WeatherDisplay:10.37,2013-09-30 10:44:00,
2013-09-30 03:49:00,58.4,47.5,29.94,West,278,0.0,0.0,67,0.00,CLR,,0.00,0.0,WeatherDisplay:10.37,2013-09-30 10:49:00,
2013-09-30 03:54:00,58.4,47.5,29.94,West,278,0.0,0.0,67,0.00,CLR,,0.00,0.0,WeatherDisplay:10.37,2013-09-30 10:54:00,
2013-09-30 03:59:00,58.4,47.5,29.94,West,278,0.0,0.0,67,0.00,CLR,,0.00,0.0,WeatherDisplay:10.37,2013-09-30 10:59:00,
2013-09-30 04:04:00,58.4,47.9,29.94,West,278,1.2,0.0,68,0.00,CLR,,0.00,0.0,WeatherDisplay:10.37,2013-09-30 11:04:00,
2013-09-30 04:09:00,58.5,48.4,29.95,West,278,1.2,1.2,69,0.00,CLR,,0.00,0.0,WeatherDisplay:10.37,2013-09-30 11:09:00,
2013-09-30 04:14:00,59.3,53.1,29.95,West,278,2.3,2.3,80,0.00,CLR,,0.00,0.0,WeatherDisplay:10.37,2013-09-30 11:14:00,
2013-09-30 04:19:00,59.6,54.1,29.95,West,278,2.3,2.3,82,0.00,CLR,,0.00,0.0,WeatherDisplay:10.37,2013-09-30 11:19:00,
2013-09-30 04:24:00,59.5,54.3,29.95,West,278,2.3,2.3,83,0.00,CLR,,0.00,0.0,WeatherDisplay:10.37,2013-09-30 11:24:00,
2013-09-30 04:29:00,59.6,54.8,29.94,West,278,2.3,2.3,84,0.00,CLR,,0.00,0.0,WeatherDisplay:10.37,2013-09-30 11:29:00,
2013-09-30 04:34:00,59.6,55.4,29.94,West,279,4.6,4.6,86,0.00,CLR,,0.00,0.0,WeatherDisplay:10.37,2013-09-30 11:34:00,
2013-09-30 04:39:00,59.6,55.4,29.94,West,279,3.5,3.5,86,0.00,CLR,,0.00,0.0,WeatherDisplay:10.37,2013-09-30 11:39:00,
2013-09-30 04:44:00,59.6,55.7,29.94,West,279,3.5,3.5,87,0.00,CLR,,0.00,0.0,WeatherDisplay:10.37,2013-09-30 11:44:00,
2013-09-30 04:49:00,59.7,56.1,29.94,West,279,3.5,3.5,88,0.00,CLR,,0.00,0.0,WeatherDisplay:10.37,2013-09-30 11:49:00,
2013-09-30 04:54:00,59.8,56.6,29.94,West,279,3.5,3.5,89,0.00,CLR,,0.00,0.0,WeatherDisplay:10.37,2013-09-30 11:54:00,
2013-09-30 04:59:00,59.8,56.6,29.94,West,279,3.5,3.5,89,0.00,CLR,,0.00,0.0,WeatherDisplay:10.37,2013-09-30 11:59:00,
2013-09-30 05:04:00,59.9,57.0,29.94,West,279,2.3,2.3,90,0.00,CLR,,0.00,0.0,WeatherDisplay:10.37,2013-09-30 12:04:00,
2013-09-30 05:09:00,60.0,57.1,29.94,West,279,1.2,0.0,90,0.00,CLR,,0.00,0.0,WeatherDisplay:10.37,2013-09-30 12:09:00,
2013-09-30 05:14:00,59.9,57.0,29.94,West,279,1.2,1.2,90,0.00,CLR,,0.00,0.0,WeatherDisplay:10.37,2013-09-30 12:14:00,
2013-09-30 05:19:00,59.9,57.0,29.94,West,279,0.0,0.0,90,0.00,CLR,,0.00,0.0,WeatherDisplay:10.37,2013-09-30 12:19:00,
2013-09-30 05:24:00,59.7,56.8,29.94,West,279,0.0,0.0,90,0.00,CLR,,0.00,0.0,WeatherDisplay:10.37,2013-09-30 12:24:00,
2013-09-30 05:29:00,59.6,56.7,29.94,West,279,0.0,0.0,90,0.00,CLR,,0.00,0.0,WeatherDisplay:10.37,2013-09-30 12:29:00,
2013-09-30 05:34:00,59.5,56.6,29.94,West,279,0.0,0.0,90,0.00,CLR,,0.00,0.0,WeatherDisplay:10.37,2013-09-30 12:34:00,
2013-09-30 05:39:00,59.3,56.4,29.94,West,279,0.0,0.0,90,0.00,CLR,,0.00,0.0,WeatherDisplay:10.37,2013-09-30 12:39:00,
2013-09-30 05:44:00,59.0,56.1,29.94,West,279,1.2,1.2,90,0.00,CLR,,0.00,0.0,WeatherDisplay:10.37,2013-09-30 12:44:00,
2013-09-30 05:49:00,58.9,56.0,29.94,West,279,0.0,0.0,90,0.00,CLR,,0.00,0.0,WeatherDisplay:10.37,2013-09-30 12:49:00,
2013-09-30 05:54:00,58.8,55.9,29.94,West,279,0.0,0.0,90,0.00,CLR,,0.00,0.0,WeatherDisplay:10.37,2013-09-30 12:54:00,
2013-09-30 05:59:00,58.7,56.1,29.94,West,279,1.2,0.0,91,0.00,CLR,,0.00,0.0,WeatherDisplay:10.37,2013-09-30 12:59:00,
2013-09-30 06:04:00,58.5,55.6,29.94,West,279,0.0,0.0,90,0.00,CLR,,0.00,0.0,WeatherDisplay:10.37,2013-09-30 13:04:00,
2013-09-30 06:09:00,58.3,55.4,29.94,West,279,0.0,0.0,90,0.00,CLR,,0.00,0.0,WeatherDisplay:10.37,2013-09-30 13:09:00,
2013-09-30 06:14:00,58.1,55.5,29.94,West,279,0.0,0.0,91,0.00,CLR,,0.00,0.0,WeatherDisplay:10.37,2013-09-30 13:14:00,
2013-09-30 06:19:00,58.0,55.4,29.94,West,279,1.2,0.0,91,0.00,CLR,,0.00,0.0,WeatherDisplay:10.37,2013-09-30 13:19:00,
2013-09-30 06:24:00,57.7,54.8,29.94,West,279,0.0,0.0,90,0.00,CLR,,0.00,0.0,WeatherDisplay:10.37,2013-09-30 13:24:00,
2013-09-30 06:29:00,57.5,54.6,29.94,West,279,0.0,0.0,90,0.00,CLR,,0.00,0.0,WeatherDisplay:10.37,2013-09-30 13:29:00,
2013-09-30 06:34:00,57.3,54.4,29.94,West,279,0.0,0.0,90,0.00,CLR,,0.00,0.0,WeatherDisplay:10.37,2013-09-30 13:34:00,
2013-09-30 06:39:00,56.9,54.0,29.94,West,279,0.0,0.0,90,0.00,CLR,,0.00,0.0,WeatherDisplay:10.37,2013-09-30 13:39:00,
2013-09-30 06:44:00,56.6,53.7,29.94,West,279,0.0,0.0,90,0.00,CLR,,0.00,0.0,WeatherDisplay:10.37,2013-09-30 13:44:00,
2013-09-30 06:49:00,56.2,53.3,29.94,West,279,1.2,1.2,90,0.00,CLR,,0.00,0.0,WeatherDisplay:10.37,2013-09-30 13:49:00,
2013-09-30 06:54:00,56.1,53.2,29.94,West,279,1.2,1.2,90,0.00,BKN,,0.00,7.0,WeatherDisplay:10.37,2013-09-30 13:54:00,
2013-09-30 06:59:00,56.1,52.9,29.94,West,279,0.0,0.0,89,0.00,BKN,,0.00,9.0,WeatherDisplay:10.37,2013-09-30 13:59:00,
2013-09-30 07:04:00,56.2,53.0,29.94,West,279,0.0,0.0,89,0.00,BKN,,0.00,11.0,WeatherDisplay:10.37,2013-09-30 14:04:00,
2013-09-30 07:09:00,56.2,53.0,29.94,West,279,0.0,0.0,89,0.00,BKN,,0.00,12.0,WeatherDisplay:10.37,2013-09-30 14:09:00,
2013-09-30 07:14:00,56.2,53.0,29.95,West,279,0.0,0.0,89,0.00,BKN,,0.00,16.0,WeatherDisplay:10.37,2013-09-30 14:14:00,
2013-09-30 07:19:00,56.3,53.1,29.95,West,279,0.0,0.0,89,0.00,BKN,,0.00,19.0,WeatherDisplay:10.37,2013-09-30 14:19:00,
2013-09-30 07:24:00,56.5,53.3,29.95,West,279,0.0,0.0,89,0.00,BKN,,0.00,42.0,WeatherDisplay:10.37,2013-09-30 14:24:00,
2013-09-30 07:29:00,56.9,53.7,29.95,West,279,0.0,0.0,89,0.00,BKN,,0.00,54.0,WeatherDisplay:10.37,2013-09-30 14:29:00,
2013-09-30 07:34:00,57.4,53.9,29.95,West,279,0.0,0.0,88,0.00,SCT,,0.00,67.0,WeatherDisplay:10.37,2013-09-30 14:34:00,
2013-09-30 07:39:00,57.9,54.1,29.95,West,279,0.0,0.0,87,0.00,SCT,,0.00,81.0,WeatherDisplay:10.37,2013-09-30 14:39:00,
2013-09-30 07:44:00,58.5,54.0,29.96,West,279,0.0,0.0,85,0.00,SCT,,0.00,97.0,WeatherDisplay:10.37,2013-09-30 14:44:00,
2013-09-30 07:49:00,59.3,54.5,29.95,West,279,1.2,1.2,84,0.00,SCT,,0.00,116.0,WeatherDisplay:10.37,2013-09-30 14:49:00,
2013-09-30 07:54:00,60.1,54.6,29.95,West,279,1.2,1.2,82,0.00,SCT,,0.00,130.0,WeatherDisplay:10.37,2013-09-30 14:54:00,
2013-09-30 07:59:00,61.0,54.4,29.96,West,279,0.0,0.0,79,0.00,SCT,,0.00,146.0,WeatherDisplay:10.37,2013-09-30 14:59:00,
2013-09-30 08:04:00,61.9,54.6,29.96,West,279,0.0,0.0,77,0.00,FEW,,0.00,165.0,WeatherDisplay:10.37,2013-09-30 15:04:00,
2013-09-30 08:09:00,62.7,54.7,29.96,West,279,1.0,0.0,75,0.00,FEW,,0.00,185.0,WeatherDisplay:10.37,2013-09-30 15:09:00,
2013-09-30 08:14:00,63.4,54.2,29.96,West,279,1.2,0.0,72,0.00,FEW,,0.00,202.0,WeatherDisplay:10.37,2013-09-30 15:14:00,
2013-09-30 08:19:00,64.1,54.9,29.96,West,279,0.0,0.0,72,0.00,FEW,,0.00,218.0,WeatherDisplay:10.37,2013-09-30 15:19:00,
2013-09-30 08:24:00,64.9,55.7,29.96,West,279,1.2,0.0,72,0.00,FEW,,0.00,234.0,WeatherDisplay:10.37,2013-09-30 15:24:00,
2013-09-30 08:29:00,65.5,55.8,29.96,West,279,0.0,0.0,71,0.00,FEW,,0.00,248.0,WeatherDisplay:10.37,2013-09-30 15:29:00,
2013-09-30 08:34:00,66.0,56.3,29.96,West,279,0.0,0.0,71,0.00,FEW,,0.00,264.0,WeatherDisplay:10.37,2013-09-30 15:34:00,
2013-09-30 08:39:00,66.5,56.0,29.96,West,279,0.0,0.0,69,0.00,FEW,,0.00,278.0,WeatherDisplay:10.37,2013-09-30 15:39:00,
2013-09-30 08:44:00,67.2,57.1,29.96,West,279,1.2,1.2,70,0.00,FEW,,0.00,290.0,WeatherDisplay:10.37,2013-09-30 15:44:00,
2013-09-30 08:49:00,67.4,56.9,29.96,West,279,3.0,3.0,69,0.00,FEW,,0.00,302.0,WeatherDisplay:10.37,2013-09-30 15:49:00,
2013-09-30 08:54:00,67.2,56.7,29.96,West,277,4.0,4.0,69,0.00,FEW,,0.00,322.0,WeatherDisplay:10.37,2013-09-30 15:54:00,
2013-09-30 08:59:00,67.0,56.5,29.96,West,276,3.5,3.5,69,0.00,FEW,,0.00,334.0,WeatherDisplay:10.37,2013-09-30 15:59:00,
2013-09-30 09:04:00,66.9,54.7,29.96,West,276,3.5,3.5,65,0.00,FEW,,0.00,350.0,WeatherDisplay:10.37,2013-09-30 16:04:00,
2013-09-30 09:09:00,67.2,53.7,29.96,West,273,2.3,2.3,62,0.00,FEW,,0.00,362.0,WeatherDisplay:10.37,2013-09-30 16:09:00,
2013-09-30 09:14:00,67.6,54.1,29.96,West,273,2.3,2.3,62,0.00,FEW,,0.00,374.0,WeatherDisplay:10.37,2013-09-30 16:14:00,
2013-09-30 09:19:00,67.9,55.3,29.96,West,273,3.5,3.5,64,0.00,FEW,,0.00,390.0,WeatherDisplay:10.37,2013-09-30 16:19:00,
2013-09-30 09:24:00,68.5,55.8,29.95,West,273,3.5,3.5,64,0.00,FEW,,0.00,403.0,WeatherDisplay:10.37,2013-09-30 16:24:00,
2013-09-30 09:29:00,69.2,56.5,29.95,West,273,2.0,2.0,64,0.00,FEW,,0.00,417.0,WeatherDisplay:10.37,2013-09-30 16:29:00,
2013-09-30 09:34:00,69.6,56.4,29.95,West,273,2.3,2.3,63,0.00,FEW,,0.00,429.0,WeatherDisplay:10.37,2013-09-30 16:34:00,
2013-09-30 09:39:00,70.1,55.6,29.95,West,273,2.3,2.3,60,0.00,FEW,,0.00,445.0,WeatherDisplay:10.37,2013-09-30 16:39:00,
2013-09-30 09:44:00,70.5,54.5,29.95,West,273,1.2,1.2,57,0.00,FEW,,0.00,457.0,WeatherDisplay:10.37,2013-09-30 16:44:00,
2013-09-30 09:49:00,71.0,54.0,29.95,West,272,3.5,3.5,55,0.00,FEW,,0.00,471.0,WeatherDisplay:10.37,2013-09-30 16:49:00,
2013-09-30 09:54:00,71.5,52.4,29.95,West,272,1.2,1.2,51,0.00,FEW,,0.00,482.0,WeatherDisplay:10.37,2013-09-30 16:54:00,
2013-09-30 09:59:00,72.5,54.9,29.95,West,269,4.0,4.0,54,0.00,FEW,,0.00,494.0,WeatherDisplay:10.37,2013-09-30 16:59:00,
2013-09-30 10:04:00,72.4,54.3,29.95,West,269,2.3,2.3,53,0.00,FEW,,0.00,501.0,WeatherDisplay:10.37,2013-09-30 17:04:00,
2013-09-30 10:09:00,72.5,53.9,29.95,West,267,3.5,3.5,52,0.00,FEW,,0.00,515.0,WeatherDisplay:10.37,2013-09-30 17:09:00,
2013-09-30 10:14:00,73.0,54.9,29.95,West,268,2.3,2.3,53,0.00,FEW,,0.00,527.0,WeatherDisplay:10.37,2013-09-30 17:14:00,
2013-09-30 10:19:00,73.3,53.5,29.95,South,190,4.0,4.0,50,0.00,FEW,,0.00,540.0,WeatherDisplay:10.37,2013-09-30 17:19:00,
2013-09-30 10:24:00,73.2,52.3,29.95,South,188,3.5,3.5,48,0.00,FEW,,0.00,547.0,WeatherDisplay:10.37,2013-09-30 17:24:00,
2013-09-30 10:29:00,73.6,53.3,29.95,South,188,3.5,3.5,49,0.00,FEW,,0.00,561.0,WeatherDisplay:10.37,2013-09-30 17:29:00,
2013-09-30 10:34:00,74.1,53.7,29.94,South,188,3.5,3.5,49,0.00,FEW,,0.00,568.0,WeatherDisplay:10.37,2013-09-30 17:34:00,
2013-09-30 10:39:00,74.7,53.7,29.94,South,187,5.0,5.0,48,0.00,FEW,,0.00,578.0,WeatherDisplay:10.37,2013-09-30 17:39:00,
2013-09-30 10:44:00,75.0,52.8,29.94,SSE,148,3.5,3.5,46,0.00,FEW,,0.00,589.0,WeatherDisplay:10.37,2013-09-30 17:44:00,
2013-09-30 10:49:00,75.5,52.7,29.94,SE,144,3.5,3.5,45,0.00,FEW,,0.00,594.0,WeatherDisplay:10.37,2013-09-30 17:49:00,
2013-09-30 10:54:00,75.9,53.0,29.94,SE,145,3.5,3.5,45,0.00,FEW,,0.00,605.0,WeatherDisplay:10.37,2013-09-30 17:54:00,
2013-09-30 10:59:00,76.2,52.1,29.94,SE,143,3.0,3.0,43,0.00,FEW,,0.00,613.0,WeatherDisplay:10.37,2013-09-30 17:59:00,
2013-09-30 11:04:00,76.6,51.8,29.93,SE,138,2.3,2.3,42,0.00,FEW,,0.00,622.0,WeatherDisplay:10.37,2013-09-30 18:04:00,
2013-09-30 11:09:00,76.5,51.7,29.93,SE,132,4.0,4.0,42,0.00,FEW,,0.00,629.0,WeatherDisplay:10.37,2013-09-30 18:09:00,
2013-09-30 11:14:00,77.0,52.1,29.93,SE,133,2.3,0.0,42,0.00,FEW,,0.00,636.0,WeatherDisplay:10.37,2013-09-30 18:14:00,
2013-09-30 11:19:00,77.4,51.2,29.93,SE,139,1.2,1.2,40,0.00,FEW,,0.00,643.0,WeatherDisplay:10.37,2013-09-30 18:19:00,
2013-09-30 11:24:00,77.9,50.2,29.93,SSE,165,7.0,7.0,38,0.00,FEW,,0.00,652.0,WeatherDisplay:10.37,2013-09-30 18:24:00,
2013-09-30 11:29:00,78.1,51.1,29.93,SSE,154,2.0,2.0,39,0.00,FEW,,0.00,657.0,WeatherDisplay:10.37,2013-09-30 18:29:00,
2013-09-30 11:34:00,78.6,50.9,29.93,SSE,155,4.0,4.0,38,0.00,FEW,,0.00,664.0,WeatherDisplay:10.37,2013-09-30 18:34:00,
2013-09-30 11:39:00,79.2,49.9,29.93,SSW,196,5.0,5.0,36,0.00,FEW,,0.00,670.0,WeatherDisplay:10.37,2013-09-30 18:39:00,
2013-09-30 11:44:00,79.5,48.7,29.93,SSW,196,4.6,4.6,34,0.00,FEW,,0.00,673.0,WeatherDisplay:10.37,2013-09-30 18:44:00,
2013-09-30 11:49:00,79.5,47.9,29.92,SW,217,3.5,3.5,33,0.00,FEW,,0.00,675.0,WeatherDisplay:10.37,2013-09-30 18:49:00,
2013-09-30 11:54:00,80.0,48.3,29.92,SW,215,3.5,3.5,33,0.00,FEW,,0.00,679.0,WeatherDisplay:10.37,2013-09-30 18:54:00,
2013-09-30 11:59:00,80.3,48.6,29.92,SW,229,5.0,5.0,33,0.00,FEW,,0.00,682.0,WeatherDisplay:10.37,2013-09-30 18:59:00,
2013-09-30 12:04:00,79.9,48.2,29.92,West,267,3.5,3.5,33,0.00,FEW,,0.00,684.0,WeatherDisplay:10.37,2013-09-30 19:04:00,
2013-09-30 12:09:00,80.3,49.4,29.92,West,267,4.6,4.6,34,0.00,FEW,,0.00,682.0,WeatherDisplay:10.37,2013-09-30 19:09:00,
2013-09-30 12:14:00,80.6,49.6,29.92,West,269,6.0,6.0,34,0.00,FEW,,0.00,687.0,WeatherDisplay:10.37,2013-09-30 19:14:00,
2013-09-30 12:19:00,80.7,49.7,29.92,WNW,290,3.5,3.5,34,0.00,FEW,,0.00,689.0,WeatherDisplay:10.37,2013-09-30 19:19:00,
2013-09-30 12:24:00,81.1,50.1,29.91,WSW,254,6.0,6.0,34,0.00,FEW,,0.00,693.0,WeatherDisplay:10.37,2013-09-30 19:24:00,
2013-09-30 12:29:00,81.5,50.4,29.91,SSW,208,7.0,7.0,34,0.00,FEW,,0.00,691.0,WeatherDisplay:10.37,2013-09-30 19:29:00,
2013-09-30 12:34:00,80.9,50.7,29.91,South,191,4.0,4.0,35,0.00,FEW,,0.00,689.0,WeatherDisplay:10.37,2013-09-30 19:34:00,
2013-09-30 12:39:00,81.5,49.6,29.91,West,280,6.9,6.9,33,0.00,FEW,,0.00,694.0,WeatherDisplay:10.37,2013-09-30 19:39:00,
2013-09-30 12:44:00,82.1,50.1,29.90,West,260,4.6,4.6,33,0.00,FEW,,0.00,689.0,WeatherDisplay:10.37,2013-09-30 19:44:00,
2013-09-30 12:49:00,82.6,49.7,29.90,West,263,8.1,8.1,32,0.00,FEW,,0.00,689.0,WeatherDisplay:10.37,2013-09-30 19:49:00,
2013-09-30 12:54:00,82.6,48.9,29.90,West,275,3.0,3.0,31,0.00,FEW,,0.00,687.0,WeatherDisplay:10.37,2013-09-30 19:54:00,
2013-09-30 12:59:00,83.1,49.3,29.90,West,273,4.6,4.6,31,0.00,FEW,,0.00,682.0,WeatherDisplay:10.37,2013-09-30 19:59:00,
2013-09-30 13:04:00,83.5,48.8,29.89,SW,217,8.0,8.0,30,0.00,FEW,,0.00,684.0,WeatherDisplay:10.37,2013-09-30 20:04:00,
2013-09-30 13:09:00,83.6,48.0,29.89,West,259,6.9,6.9,29,0.00,FEW,,0.00,679.0,WeatherDisplay:10.37,2013-09-30 20:09:00,
2013-09-30 13:14:00,83.9,48.2,29.89,WNW,284,7.0,7.0,29,0.00,FEW,,0.00,680.0,WeatherDisplay:10.37,2013-09-30 20:14:00,
2013-09-30 13:19:00,83.9,49.1,29.89,SSW,213,11.5,11.5,30,0.00,FEW,,0.00,671.0,WeatherDisplay:10.37,2013-09-30 20:19:00,
2013-09-30 13:24:00,83.2,56.4,29.89,SSW,205,6.9,6.9,40,0.00,FEW,,0.00,664.0,WeatherDisplay:10.37,2013-09-30 20:24:00,
2013-09-30 13:29:00,83.0,56.9,29.89,South,172,6.9,6.9,41,0.00,FEW,,0.00,661.0,WeatherDisplay:10.37,2013-09-30 20:29:00,
2013-09-30 13:34:00,82.4,57.0,29.88,SSW,202,9.2,9.2,42,0.00,FEW,,0.00,652.0,WeatherDisplay:10.37,2013-09-30 20:34:00,
2013-09-30 13:39:00,82.8,54.6,29.88,West,267,9.2,9.2,38,0.00,FEW,,0.00,656.0,WeatherDisplay:10.37,2013-09-30 20:39:00,
2013-09-30 13:44:00,83.3,55.0,29.88,West,269,10.0,10.0,38,0.00,FEW,,0.00,638.0,WeatherDisplay:10.37,2013-09-30 20:44:00,
2013-09-30 13:50:00,83.3,57.1,29.87,South,188,5.8,5.8,41,0.00,SCT,,0.00,464.0,WeatherDisplay:10.37,2013-09-30 20:50:00,
2013-09-30 13:55:00,83.6,56.0,29.87,SSW,205,8.1,8.1,39,0.00,FEW,,0.00,640.0,WeatherDisplay:10.37,2013-09-30 20:55:00,
2013-09-30 14:00:00,83.5,56.6,29.87,SSE,165,9.2,9.2,40,0.00,FEW,,0.00,640.0,WeatherDisplay:10.37,2013-09-30 21:00:00,
2013-09-30 14:05:00,83.4,45.9,29.87,WNW,283,9.2,9.2,27,0.00,FEW,,0.00,640.0,WeatherDisplay:10.37,2013-09-30 21:05:00,
2013-09-30 14:10:00,83.9,45.3,29.87,WSW,257,9.2,9.2,26,0.00,FEW,,0.00,633.0,WeatherDisplay:10.37,2013-09-30 21:10:00,
2013-09-30 14:15:00,84.1,45.5,29.87,WSW,246,11.5,11.5,26,0.00,FEW,,0.00,626.0,WeatherDisplay:10.37,2013-09-30 21:15:00,
2013-09-30 14:20:00,83.4,44.9,29.87,WNW,296,9.2,9.2,26,0.00,FEW,,0.00,619.0,WeatherDisplay:10.37,2013-09-30 21:20:00,
2013-09-30 14:25:00,83.6,43.0,29.87,NW,311,10.4,10.4,24,0.00,FEW,,0.00,615.0,WeatherDisplay:10.37,2013-09-30 21:25:00,
2013-09-30 14:30:00,83.3,44.8,29.86,West,271,11.5,11.5,26,0.00,FEW,,0.00,605.0,WeatherDisplay:10.37,2013-09-30 21:30:00,
2013-09-30 14:35:00,83.0,44.6,29.87,West,265,7.0,7.0,26,0.00,FEW,,0.00,596.0,WeatherDisplay:10.37,2013-09-30 21:35:00,
2013-09-30 14:40:00,83.4,44.9,29.87,WNW,282,11.5,11.5,26,0.00,FEW,,0.00,584.0,WeatherDisplay:10.37,2013-09-30 21:40:00,
2013-09-30 14:45:00,82.7,46.3,29.86,West,279,4.6,4.6,28,0.00,FEW,,0.00,575.0,WeatherDisplay:10.37,2013-09-30 21:45:00,
2013-09-30 14:50:00,82.3,45.9,29.86,WNW,284,9.2,9.2,28,0.00,FEW,,0.00,568.0,WeatherDisplay:10.37,2013-09-30 21:50:00,
2013-09-30 14:55:00,82.5,47.0,29.86,WSW,254,8.1,8.1,29,0.00,FEW,,0.00,554.0,WeatherDisplay:10.37,2013-09-30 21:55:00,
2013-09-30 15:00:00,83.3,46.8,29.86,WSW,254,8.1,8.1,28,0.00,FEW,,0.00,548.0,WeatherDisplay:10.37,2013-09-30 22:00:00,
2013-09-30 15:05:00,83.5,46.0,29.86,SW,224,6.9,6.9,27,0.00,FEW,,0.00,536.0,WeatherDisplay:10.37,2013-09-30 22:05:00,
2013-09-30 15:10:00,83.4,46.9,29.86,West,279,10.4,10.4,28,0.00,FEW,,0.00,526.0,WeatherDisplay:10.37,2013-09-30 22:10:00,
2013-09-30 15:15:00,82.2,47.7,29.86,West,278,11.5,11.5,30,0.00,FEW,,0.00,513.0,WeatherDisplay:10.37,2013-09-30 22:15:00,
2013-09-30 15:20:00,83.0,47.5,29.85,WSW,240,4.6,4.6,29,0.00,FEW,,0.00,497.0,WeatherDisplay:10.37,2013-09-30 22:20:00,
2013-09-30 15:25:00,82.8,48.2,29.85,West,262,9.2,9.2,30,0.00,FEW,,0.00,489.0,WeatherDisplay:10.37,2013-09-30 22:25:00,
2013-09-30 15:30:00,82.9,48.3,29.85,West,268,4.0,4.0,30,0.00,FEW,,0.00,476.0,WeatherDisplay:10.37,2013-09-30 22:30:00,
2013-09-30 15:35:00,83.1,48.5,29.85,WSW,253,11.5,11.5,30,0.00,FEW,,0.00,464.0,WeatherDisplay:10.37,2013-09-30 22:35:00,
2013-09-30 15:40:00,82.8,49.1,29.85,West,259,10.4,10.4,31,0.00,FEW,,0.00,448.0,WeatherDisplay:10.37,2013-09-30 22:40:00,
2013-09-30 15:45:00,82.5,49.7,29.85,West,281,6.9,6.9,32,0.00,FEW,,0.00,438.0,WeatherDisplay:10.37,2013-09-30 22:45:00,
2013-09-30 15:50:00,82.4,51.2,29.85,WNW,295,11.0,11.0,34,0.00,FEW,,0.00,424.0,WeatherDisplay:10.37,2013-09-30 22:50:00,
2013-09-30 15:55:00,82.3,51.9,29.85,WSW,242,6.9,6.9,35,0.00,FEW,,0.00,411.0,WeatherDisplay:10.37,2013-09-30 22:55:00,
2013-09-30 16:00:00,82.5,51.3,29.84,West,281,11.5,11.5,34,0.00,FEW,,0.00,397.0,WeatherDisplay:10.37,2013-09-30 23:00:00,
2013-09-30 16:05:00,82.3,51.9,29.84,WSW,258,8.1,8.1,35,0.00,FEW,,0.00,385.0,WeatherDisplay:10.37,2013-09-30 23:05:00,
2013-09-30 16:10:00,82.4,52.0,29.84,West,277,6.9,6.9,35,0.00,FEW,,0.00,373.0,WeatherDisplay:10.37,2013-09-30 23:10:00,
2013-09-30 16:15:00,82.6,52.2,29.84,SW,223,7.0,7.0,35,0.00,FEW,,0.00,360.0,WeatherDisplay:10.37,2013-09-30 23:15:00,
2013-09-30 16:20:00,82.9,52.4,29.84,WSW,258,7.0,7.0,35,0.00,FEW,,0.00,346.0,WeatherDisplay:10.37,2013-09-30 23:20:00,
2013-09-30 16:25:00,82.9,52.4,29.84,SSW,204,6.9,6.9,35,0.00,FEW,,0.00,330.0,WeatherDisplay:10.37,2013-09-30 23:25:00,
2013-09-30 16:30:00,82.8,52.3,29.84,WSW,254,6.9,6.9,35,0.00,FEW,,0.00,316.0,WeatherDisplay:10.37,2013-09-30 23:30:00,
2013-09-30 16:35:00,82.3,52.7,29.84,West,263,6.9,6.9,36,0.00,FEW,,0.00,304.0,WeatherDisplay:10.37,2013-09-30 23:35:00,
2013-09-30 16:40:00,82.6,52.9,29.84,WSW,248,8.0,8.0,36,0.00,FEW,,0.00,288.0,WeatherDisplay:10.37,2013-09-30 23:40:00,
2013-09-30 16:45:00,82.5,52.9,29.84,WSW,248,5.0,5.0,36,0.00,FEW,,0.00,272.0,WeatherDisplay:10.37,2013-09-30 23:45:00,
2013-09-30 16:50:00,82.5,52.9,29.83,WSW,255,7.0,7.0,36,0.00,FEW,,0.00,260.0,WeatherDisplay:10.37,2013-09-30 23:50:00,
2013-09-30 16:55:00,82.0,52.4,29.83,WNW,288,5.8,5.8,36,0.00,FEW,,0.00,243.0,WeatherDisplay:10.37,2013-09-30 23:55:00,
2013-09-30 17:00:00,81.9,53.1,29.83,WSW,248,6.9,6.9,37,0.00,FEW,,0.00,230.0,WeatherDisplay:10.37,2013-10-01 00:00:00,
2013-09-30 17:05:00,81.7,52.1,29.83,West,265,6.9,6.9,36,0.00,FEW,,0.00,214.0,WeatherDisplay:10.37,2013-10-01 00:05:00,
2013-09-30 17:10:00,81.7,52.1,29.83,West,265,9.2,9.2,36,0.00,FEW,,0.00,202.0,WeatherDisplay:10.37,2013-10-01 00:10:00,
2013-09-30 17:15:00,81.8,51.5,29.83,West,261,5.0,5.0,35,0.00,FEW,,0.00,192.0,WeatherDisplay:10.37,2013-10-01 00:15:00,
2013-09-30 17:20:00,81.8,50.7,29.83,West,261,5.8,5.8,34,0.00,FEW,,0.00,178.0,WeatherDisplay:10.37,2013-10-01 00:20:00,
2013-09-30 17:25:00,81.5,51.2,29.83,West,265,6.9,6.9,35,0.00,FEW,,0.00,160.0,WeatherDisplay:10.37,2013-10-01 00:25:00,
2013-09-30 17:30:00,81.3,51.0,29.83,West,264,4.6,4.6,35,0.00,FEW,,0.00,142.0,WeatherDisplay:10.37,2013-10-01 00:30:00,
2013-09-30 17:35:00,81.3,51.0,29.83,West,268,7.0,7.0,35,0.00,FEW,,0.00,125.0,WeatherDisplay:10.37,2013-10-01 00:35:00,
2013-09-30 17:40:00,81.2,51.7,29.83,West,267,5.8,5.8,36,0.00,SCT,,0.00,107.0,WeatherDisplay:10.37,2013-10-01 00:40:00,
2013-09-30 17:45:00,81.0,51.5,29.83,West,267,4.6,4.6,36,0.00,SCT,,0.00,91.0,WeatherDisplay:10.37,2013-10-01 00:45:00,
2013-09-30 17:50:00,80.7,51.3,29.83,West,264,5.8,5.8,36,0.00,SCT,,0.00,79.0,WeatherDisplay:10.37,2013-10-01 00:50:00,
2013-09-30 17:55:00,80.3,50.9,29.83,West,271,4.6,4.6,36,0.00,SCT,,0.00,62.0,WeatherDisplay:10.37,2013-10-01 00:55:00,
2013-09-30 18:00:00,80.1,50.7,29.83,West,267,3.5,3.5,36,0.00,SCT,,0.00,49.0,WeatherDisplay:10.37,2013-10-01 01:00:00,
2013-09-30 18:05:00,80.0,50.6,29.83,West,259,4.6,4.6,36,0.00,BKN,,0.00,37.0,WeatherDisplay:10.37,2013-10-01 01:05:00,
2013-09-30 18:10:00,79.6,50.3,29.83,SW,216,3.5,3.5,36,0.00,BKN,,0.00,28.0,WeatherDisplay:10.37,2013-10-01 01:10:00,
2013-09-30 18:15:00,79.3,50.0,29.83,SW,216,4.0,4.0,36,0.00,BKN,,0.00,19.0,WeatherDisplay:10.37,2013-10-01 01:15:00,
2013-09-30 18:20:00,79.1,55.3,29.83,SSW,212,3.5,3.5,44,0.00,BKN,,0.00,12.0,WeatherDisplay:10.37,2013-10-01 01:20:00,
2013-09-30 18:25:00,78.4,59.3,29.83,South,183,3.5,3.5,52,0.00,BKN,,0.00,11.0,WeatherDisplay:10.37,2013-10-01 01:25:00,
2013-09-30 18:30:00,77.4,59.5,29.83,South,172,7.0,7.0,54,0.00,BKN,,0.00,7.0,WeatherDisplay:10.37,2013-10-01 01:30:00,
2013-09-30 18:35:00,76.3,59.4,29.83,SSE,161,4.6,4.6,56,0.00,SCT,,0.00,5.0,WeatherDisplay:10.37,2013-10-01 01:35:00,
2013-09-30 18:40:00,75.8,60.0,29.83,SSE,161,3.5,3.5,58,0.00,CLR,,0.00,0.0,WeatherDisplay:10.37,2013-10-01 01:40:00,
2013-09-30 18:45:00,75.3,59.5,29.83,SSE,161,4.0,4.0,58,0.00,CLR,,0.00,0.0,WeatherDisplay:10.37,2013-10-01 01:45:00,
2013-09-30 18:50:00,74.9,60.1,29.83,SSE,159,4.6,4.6,60,0.00,CLR,,0.00,0.0,WeatherDisplay:10.37,2013-10-01 01:50:00,
2013-09-30 18:55:00,74.4,60.5,29.83,SSE,150,4.6,4.6,62,0.00,CLR,,0.00,0.0,WeatherDisplay:10.37,2013-10-01 01:55:00,
2013-09-30 19:00:00,73.8,60.9,29.83,SSE,150,3.5,3.5,64,0.00,CLR,,0.00,0.0,WeatherDisplay:10.37,2013-10-01 02:00:00,
2013-09-30 19:05:00,73.5,61.0,29.84,SSE,150,3.5,3.5,65,0.00,CLR,,0.00,0.0,WeatherDisplay:10.37,2013-10-01 02:05:00,
2013-09-30 19:10:00,73.1,61.1,29.84,SE,142,4.0,4.0,66,0.00,CLR,,0.00,0.0,WeatherDisplay:10.37,2013-10-01 02:10:00,
2013-09-30 19:15:00,72.6,61.0,29.83,SE,141,4.6,4.6,67,0.00,CLR,,0.00,0.0,WeatherDisplay:10.37,2013-10-01 02:15:00,
2013-09-30 19:20:00,72.4,61.2,29.84,SE,141,3.5,3.5,68,0.00,CLR,,0.00,0.0,WeatherDisplay:10.37,2013-10-01 02:20:00,
2013-09-30 19:25:00,72.2,61.5,29.84,SE,141,3.5,3.5,69,0.00,CLR,,0.00,0.0,WeatherDisplay:10.37,2013-10-01 02:25:00,
2013-09-30 19:30:00,72.0,61.3,29.84,SE,142,4.0,4.0,69,0.00,CLR,,0.00,0.0,WeatherDisplay:10.37,2013-10-01 02:30:00,
2013-09-30 19:35:00,71.9,61.6,29.84,SE,142,3.5,3.5,70,0.00,CLR,,0.00,0.0,WeatherDisplay:10.37,2013-10-01 02:35:00,
2013-09-30 19:40:00,71.7,61.4,29.84,SE,141,3.5,3.5,70,0.00,CLR,,0.00,0.0,WeatherDisplay:10.37,2013-10-01 02:40:00,
2013-09-30 19:45:00,71.6,61.7,29.84,SE,141,2.3,2.3,71,0.00,CLR,,0.00,0.0,WeatherDisplay:10.37,2013-10-01 02:45:00,
2013-09-30 19:50:00,71.5,62.0,29.84,SE,141,3.5,3.5,72,0.00,CLR,,0.00,0.0,WeatherDisplay:10.37,2013-10-01 02:50:00,
2013-09-30 19:55:00,71.2,61.7,29.84,SE,141,4.0,4.0,72,0.00,CLR,,0.00,0.0,WeatherDisplay:10.37,2013-10-01 02:55:00,
2013-09-30 20:00:00,71.0,61.9,29.84,SE,140,2.3,2.3,73,0.00,CLR,,0.00,0.0,WeatherDisplay:10.37,2013-10-01 03:00:00,
2013-09-30 20:05:00,70.9,61.8,29.84,SE,140,4.0,4.0,73,0.00,CLR,,0.00,0.0,WeatherDisplay:10.37,2013-10-01 03:05:00,
2013-09-30 20:10:00,70.8,61.7,29.84,SE,140,4.0,4.0,73,0.00,CLR,,0.00,0.0,WeatherDisplay:10.37,2013-10-01 03:10:00,
2013-09-30 20:15:00,70.7,62.0,29.84,SE,140,3.5,3.5,74,0.00,CLR,,0.00,0.0,WeatherDisplay:10.37,2013-10-01 03:15:00,
2013-09-30 20:20:00,70.5,61.8,29.84,SE,140,3.5,3.5,74,0.00,CLR,,0.00,0.0,WeatherDisplay:10.37,2013-10-01 03:20:00,
2013-09-30 20:25:00,70.3,61.6,29.85,SE,140,3.5,3.5,74,0.00,CLR,,0.00,0.0,WeatherDisplay:10.37,2013-10-01 03:25:00,
2013-09-30 20:30:00,70.1,61.8,29.85,SE,140,3.0,3.0,75,0.00,CLR,,0.00,0.0,WeatherDisplay:10.37,2013-10-01 03:30:00,
2013-09-30 20:35:00,69.9,62.0,29.85,SE,140,3.5,3.5,76,0.00,CLR,,0.00,0.0,WeatherDisplay:10.37,2013-10-01 03:35:00,
2013-09-30 20:40:00,69.8,61.9,29.85,SE,141,4.0,4.0,76,0.00,CLR,,0.00,0.0,WeatherDisplay:10.37,2013-10-01 03:40:00,
2013-09-30 20:45:00,69.7,61.8,29.85,SE,141,3.5,3.5,76,0.00,CLR,,0.00,0.0,WeatherDisplay:10.37,2013-10-01 03:45:00,
2013-09-30 20:50:00,69.5,61.6,29.85,SE,141,3.5,3.5,76,0.00,CLR,,0.00,0.0,WeatherDisplay:10.37,2013-10-01 03:50:00,
2013-09-30 20:55:00,69.4,61.5,29.85,SE,141,3.5,3.5,76,0.00,CLR,,0.00,0.0,WeatherDisplay:10.37,2013-10-01 03:55:00,
2013-09-30 21:00:00,69.3,61.4,29.85,SE,141,4.0,4.0,76,0.00,CLR,,0.00,0.0,WeatherDisplay:10.37,2013-10-01 04:00:00,
2013-09-30 21:01:00,69.3,61.4,29.85,SE,141,4.0,4.0,76,0.00,CLR,,0.00,0.0,WeatherDisplay:10.37,2013-10-01 04:01:00,
2013-09-30 21:03:00,69.3,61.8,29.85,SE,141,3.5,3.5,77,0.00,CLR,,0.00,0.0,WeatherDisplay:10.37,2013-10-01 04:03:00,
2013-09-30 21:08:00,69.3,61.4,29.85,SE,141,1.2,0.0,76,0.00,CLR,,0.00,0.0,WeatherDisplay:10.37,2013-10-01 04:08:00,
2013-09-30 21:13:00,69.2,61.3,29.85,SE,141,3.5,3.5,76,0.00,CLR,,0.00,0.0,WeatherDisplay:10.37,2013-10-01 04:13:00,
2013-09-30 21:18:00,69.0,61.1,29.85,SE,140,3.5,3.5,76,0.00,CLR,,0.00,0.0,WeatherDisplay:10.37,2013-10-01 04:18:00,
2013-09-30 21:23:00,69.0,61.1,29.85,SE,140,2.3,2.3,76,0.00,CLR,,0.00,0.0,WeatherDisplay:10.37,2013-10-01 04:23:00,
2013-09-30 21:28:00,68.8,60.9,29.85,SE,140,3.5,3.5,76,0.00,CLR,,0.00,0.0,WeatherDisplay:10.37,2013-10-01 04:28:00,
2013-09-30 21:33:00,68.7,60.8,29.85,SE,140,3.5,3.5,76,0.00,CLR,,0.00,0.0,WeatherDisplay:10.37,2013-10-01 04:33:00,
2013-09-30 21:38:00,68.6,60.7,29.85,SE,140,3.5,3.5,76,0.00,CLR,,0.00,0.0,WeatherDisplay:10.37,2013-10-01 04:38:00,
2013-09-30 21:43:00,68.5,60.6,29.86,SE,140,2.3,2.3,76,0.00,CLR,,0.00,0.0,WeatherDisplay:10.37,2013-10-01 04:43:00,
2013-09-30 21:48:00,68.4,60.5,29.86,SE,140,2.3,2.3,76,0.00,CLR,,0.00,0.0,WeatherDisplay:10.37,2013-10-01 04:48:00,
2013-09-30 21:53:00,68.3,60.4,29.86,SE,140,4.0,4.0,76,0.00,CLR,,0.00,0.0,WeatherDisplay:10.37,2013-10-01 04:53:00,
2013-09-30 21:58:00,68.1,60.2,29.85,SE,140,4.0,4.0,76,0.00,CLR,,0.00,0.0,WeatherDisplay:10.37,2013-10-01 04:58:00,
2013-09-30 22:03:00,68.0,60.2,29.86,SE,140,2.0,2.0,76,0.00,CLR,,0.00,0.0,WeatherDisplay:10.37,2013-10-01 05:03:00,
2013-09-30 22:08:00,67.9,60.4,29.86,SE,140,3.5,3.5,77,0.00,CLR,,0.00,0.0,WeatherDisplay:10.37,2013-10-01 05:08:00,
2013-09-30 22:13:00,67.7,60.2,29.86,SE,140,3.5,3.5,77,0.00,CLR,,0.00,0.0,WeatherDisplay:10.37,2013-10-01 05:13:00,
2013-09-30 22:18:00,67.7,60.2,29.86,SE,140,3.5,3.5,77,0.00,CLR,,0.00,0.0,WeatherDisplay:10.37,2013-10-01 05:18:00,
2013-09-30 22:23:00,67.6,60.1,29.86,SE,140,3.5,3.5,77,0.00,CLR,,0.00,0.0,WeatherDisplay:10.37,2013-10-01 05:23:00,
2013-09-30 22:28:00,67.5,60.0,29.86,SE,140,2.3,2.3,77,0.00,CLR,,0.00,0.0,WeatherDisplay:10.37,2013-10-01 05:28:00,
2013-09-30 22:33:00,67.5,60.0,29.86,SE,140,2.3,2.3,77,0.00,CLR,,0.00,0.0,WeatherDisplay:10.37,2013-10-01 05:33:00,
2013-09-30 22:38:00,67.4,59.9,29.86,SE,140,2.3,2.3,77,0.00,CLR,,0.00,0.0,WeatherDisplay:10.37,2013-10-01 05:38:00,
2013-09-30 22:43:00,67.4,59.9,29.86,SE,140,2.3,2.3,77,0.00,CLR,,0.00,0.0,WeatherDisplay:10.37,2013-10-01 05:43:00,
2013-09-30 22:48:00,67.3,59.8,29.86,SE,140,2.3,2.3,77,0.00,CLR,,0.00,0.0,WeatherDisplay:10.37,2013-10-01 05:48:00,
2013-09-30 22:53:00,67.3,59.8,29.86,SE,140,2.3,2.3,77,0.00,CLR,,0.00,0.0,WeatherDisplay:10.37,2013-10-01 05:53:00,
2013-09-30 22:58:00,67.2,59.4,29.86,SE,140,1.2,1.2,76,0.00,CLR,,0.00,0.0,WeatherDisplay:10.37,2013-10-01 05:58:00,
2013-09-30 23:03:00,67.1,59.6,29.86,SE,140,1.2,0.0,77,0.00,CLR,,0.00,0.0,WeatherDisplay:10.37,2013-10-01 06:03:00,
2013-09-30 23:08:00,66.9,59.5,29.86,SE,140,1.2,0.0,77,0.00,CLR,,0.00,0.0,WeatherDisplay:10.37,2013-10-01 06:08:00,
2013-09-30 23:13:00,66.7,59.3,29.86,SE,140,1.2,0.0,77,0.00,CLR,,0.00,0.0,WeatherDisplay:10.37,2013-10-01 06:13:00,
2013-09-30 23:18:00,66.6,59.2,29.86,SE,140,1.2,0.0,77,0.00,CLR,,0.00,0.0,WeatherDisplay:10.37,2013-10-01 06:18:00,
2013-09-30 23:23:00,66.5,59.4,29.86,SE,140,1.2,1.2,78,0.00,CLR,,0.00,0.0,WeatherDisplay:10.37,2013-10-01 06:23:00,
2013-09-30 23:28:00,66.5,59.4,29.86,SE,140,1.2,1.2,78,0.00,CLR,,0.00,0.0,WeatherDisplay:10.37,2013-10-01 06:28:00,
2013-09-30 23:33:00,66.4,59.3,29.86,SE,140,0.0,0.0,78,0.00,CLR,,0.00,0.0,WeatherDisplay:10.37,2013-10-01 06:33:00,
2013-09-30 23:38:00,66.4,59.3,29.86,SE,140,1.2,1.2,78,0.00,CLR,,0.00,0.0,WeatherDisplay:10.37,2013-10-01 06:38:00,
2013-09-30 23:43:00,66.3,59.2,29.86,SE,140,1.2,0.0,78,0.00,CLR,,0.00,0.0,WeatherDisplay:10.37,2013-10-01 06:43:00,
2013-09-30 23:48:00,66.3,59.2,29.86,SE,140,0.0,0.0,78,0.00,CLR,,0.00,0.0,WeatherDisplay:10.37,2013-10-01 06:48:00,
2013-09-30 23:53:00,66.3,59.6,29.86,SE,140,0.0,0.0,79,0.00,CLR,,0.00,0.0,WeatherDisplay:10.37,2013-10-01 06:53:00,
2013-09-30 23:58:00,66.1,59.0,29.86,SE,140,0.0,0.0,78,0.00,CLR,,0.00,0.0,WeatherDisplay:10.37,2013-10-01 06:58:00,